sensor_id;sensor_type;location;lat;lon;timestamp;temperature;humidity
38167;DHT22;23980;51.902;12.832;2022-07-25T00:01:44;20.70;39.60
38167;DHT22;23980;51.902;12.832;2022-07-25T00:06:48;20.60;39.50
38167;DHT22;23980;51.902;12.832;2022-07-25T00:11:49;20.60;39.70
38167;DHT22;23980;51.902;12.832;2022-07-25T00:16:50;20.60;39.60
38167;DHT22;23980;51.902;12.832;2022-07-25T00:21:54;20.60;39.70
38167;DHT22;23980;51.902;12.832;2022-07-25T00:26:55;20.50;39.80
38167;DHT22;23980;51.902;12.832;2022-07-25T00:32:05;20.50;39.70
38167;DHT22;23980;51.902;12.832;2022-07-25T00:37:06;20.40;39.80
38167;DHT22;23980;51.902;12.832;2022-07-25T00:42:06;20.40;39.70
38167;DHT22;23980;51.902;12.832;2022-07-25T00:47:23;20.30;39.70
38167;DHT22;23980;51.902;12.832;2022-07-25T00:52:24;20.20;39.80
38167;DHT22;23980;51.902;12.832;2022-07-25T00:57:25;20.20;39.70
38167;DHT22;23980;51.902;12.832;2022-07-25T01:02:26;20.20;39.80
38167;DHT22;23980;51.902;12.832;2022-07-25T01:07:26;20.10;39.70
38167;DHT22;23980;51.902;12.832;2022-07-25T01:12:28;20.10;39.80
38167;DHT22;23980;51.902;12.832;2022-07-25T01:17:54;20.00;39.70
38167;DHT22;23980;51.902;12.832;2022-07-25T01:22:55;19.90;39.90
38167;DHT22;23980;51.902;12.832;2022-07-25T01:27:56;19.90;39.70
38167;DHT22;23980;51.902;12.832;2022-07-25T01:32:57;19.80;39.70
38167;DHT22;23980;51.902;12.832;2022-07-25T01:38:05;19.70;39.80
38167;DHT22;23980;51.902;12.832;2022-07-25T01:43:05;19.70;40.10
38167;DHT22;23980;51.902;12.832;2022-07-25T01:48:06;19.60;39.90
38167;DHT22;23980;51.902;12.832;2022-07-25T01:53:07;19.50;39.90
38167;DHT22;23980;51.902;12.832;2022-07-25T01:58:12;19.40;39.90
38167;DHT22;23980;51.902;12.832;2022-07-25T02:03:13;19.40;40.30
38167;DHT22;23980;51.902;12.832;2022-07-25T02:08:30;19.30;40.10
38167;DHT22;23980;51.902;12.832;2022-07-25T02:13:31;19.30;40.10
38167;DHT22;23980;51.902;12.832;2022-07-25T02:18:31;19.20;40.30
38167;DHT22;23980;51.902;12.832;2022-07-25T02:23:32;19.10;40.10
38167;DHT22;23980;51.902;12.832;2022-07-25T02:28:50;19.10;40.30
38167;DHT22;23980;51.902;12.832;2022-07-25T02:33:57;19.10;40.40
38167;DHT22;23980;51.902;12.832;2022-07-25T02:38:57;19.00;40.50
38167;DHT22;23980;51.902;12.832;2022-07-25T02:43:58;18.90;40.20
38167;DHT22;23980;51.902;12.832;2022-07-25T02:48:58;18.90;40.30
38167;DHT22;23980;51.902;12.832;2022-07-25T02:53:59;18.90;40.40
38167;DHT22;23980;51.902;12.832;2022-07-25T02:58:59;18.80;40.30
38167;DHT22;23980;51.902;12.832;2022-07-25T03:04:00;18.80;40.40
38167;DHT22;23980;51.902;12.832;2022-07-25T03:09:04;18.80;40.40
38167;DHT22;23980;51.902;12.832;2022-07-25T03:14:07;18.70;40.40
38167;DHT22;23980;51.902;12.832;2022-07-25T03:19:07;18.70;40.20
38167;DHT22;23980;51.902;12.832;2022-07-25T03:24:10;18.60;40.10
38167;DHT22;23980;51.902;12.832;2022-07-25T03:29:10;18.60;40.30
38167;DHT22;23980;51.902;12.832;2022-07-25T03:34:11;18.50;40.20
38167;DHT22;23980;51.902;12.832;2022-07-25T03:39:15;18.50;40.20
38167;DHT22;23980;51.902;12.832;2022-07-25T03:44:16;18.40;40.30
38167;DHT22;23980;51.902;12.832;2022-07-25T03:49:17;18.50;40.20
38167;DHT22;23980;51.902;12.832;2022-07-25T03:54:22;18.40;40.20
38167;DHT22;23980;51.902;12.832;2022-07-25T03:59:23;18.40;40.40
38167;DHT22;23980;51.902;12.832;2022-07-25T04:04:29;18.40;40.30
38167;DHT22;23980;51.902;12.832;2022-07-25T04:09:30;18.40;40.50
38167;DHT22;23980;51.902;12.832;2022-07-25T04:14:30;18.40;40.30
38167;DHT22;23980;51.902;12.832;2022-07-25T04:19:32;18.40;40.40
38167;DHT22;23980;51.902;12.832;2022-07-25T04:24:33;18.40;40.40
38167;DHT22;23980;51.902;12.832;2022-07-25T04:29:33;18.40;40.50
38167;DHT22;23980;51.902;12.832;2022-07-25T04:34:34;18.40;41.10
38167;DHT22;23980;51.902;12.832;2022-07-25T04:39:34;18.40;40.60
38167;DHT22;23980;51.902;12.832;2022-07-25T04:44:35;18.50;40.70
38167;DHT22;23980;51.902;12.832;2022-07-25T04:49:35;18.40;40.80
38167;DHT22;23980;51.902;12.832;2022-07-25T04:54:37;18.40;40.70
38167;DHT22;23980;51.902;12.832;2022-07-25T04:59:57;18.50;40.90
38167;DHT22;23980;51.902;12.832;2022-07-25T05:04:58;18.50;41.10
38167;DHT22;23980;51.902;12.832;2022-07-25T05:09:58;18.60;41.00
38167;DHT22;23980;51.902;12.832;2022-07-25T05:15:30;18.60;41.00
38167;DHT22;23980;51.902;12.832;2022-07-25T05:20:32;18.70;41.50
38167;DHT22;23980;51.902;12.832;2022-07-25T05:25:33;18.70;41.10
38167;DHT22;23980;51.902;12.832;2022-07-25T05:30:46;18.80;41.30
38167;DHT22;23980;51.902;12.832;2022-07-25T05:35:47;18.90;41.50
38167;DHT22;23980;51.902;12.832;2022-07-25T05:40:48;19.10;41.30
38167;DHT22;23980;51.902;12.832;2022-07-25T05:45:51;19.20;41.40
38167;DHT22;23980;51.902;12.832;2022-07-25T05:50:53;19.20;41.40
38167;DHT22;23980;51.902;12.832;2022-07-25T05:55:53;19.30;41.40
38167;DHT22;23980;51.902;12.832;2022-07-25T06:01:03;19.50;41.50
38167;DHT22;23980;51.902;12.832;2022-07-25T06:06:04;19.60;41.70
38167;DHT22;23980;51.902;12.832;2022-07-25T06:11:06;19.70;41.30
38167;DHT22;23980;51.902;12.832;2022-07-25T06:16:12;19.80;41.50
38167;DHT22;23980;51.902;12.832;2022-07-25T06:21:12;20.00;41.70
38167;DHT22;23980;51.902;12.832;2022-07-25T06:26:13;20.10;41.70
38167;DHT22;23980;51.902;12.832;2022-07-25T06:31:16;20.30;41.80
38167;DHT22;23980;51.902;12.832;2022-07-25T06:36:16;20.40;41.80
38167;DHT22;23980;51.902;12.832;2022-07-25T06:41:17;20.60;41.90
38167;DHT22;23980;51.902;12.832;2022-07-25T06:46:37;20.80;41.90
38167;DHT22;23980;51.902;12.832;2022-07-25T06:51:38;20.90;42.20
38167;DHT22;23980;51.902;12.832;2022-07-25T06:56:38;21.10;42.00
38167;DHT22;23980;51.902;12.832;2022-07-25T07:01:39;21.20;42.00
38167;DHT22;23980;51.902;12.832;2022-07-25T07:06:48;21.40;42.10
38167;DHT22;23980;51.902;12.832;2022-07-25T07:11:48;21.60;42.40
38167;DHT22;23980;51.902;12.832;2022-07-25T07:16:49;21.70;42.10
38167;DHT22;23980;51.902;12.832;2022-07-25T07:21:55;21.90;42.20
38167;DHT22;23980;51.902;12.832;2022-07-25T07:26:55;22.10;42.50
38167;DHT22;23980;51.902;12.832;2022-07-25T07:31:56;22.30;42.40
38167;DHT22;23980;51.902;12.832;2022-07-25T07:36:57;22.50;42.30
38167;DHT22;23980;51.902;12.832;2022-07-25T07:41:58;22.70;42.60
38167;DHT22;23980;51.902;12.832;2022-07-25T07:47:12;22.90;42.70
38167;DHT22;23980;51.902;12.832;2022-07-25T07:52:15;23.10;42.80
38167;DHT22;23980;51.902;12.832;2022-07-25T07:57:15;23.30;42.60
38167;DHT22;23980;51.902;12.832;2022-07-25T08:02:16;23.50;42.60
38167;DHT22;23980;51.902;12.832;2022-07-25T08:07:16;23.80;42.60
38167;DHT22;23980;51.902;12.832;2022-07-25T08:12:17;23.90;42.70
38167;DHT22;23980;51.902;12.832;2022-07-25T08:17:17;24.20;42.80
38167;DHT22;23980;51.902;12.832;2022-07-25T08:22:18;24.40;42.90
38167;DHT22;23980;51.902;12.832;2022-07-25T14:11:30;24.70;42.80
38167;DHT22;23980;51.902;12.832;2022-07-25T14:16:32;40.40;39.50
38167;DHT22;23980;51.902;12.832;2022-07-25T14:21:34;40.00;39.70
38167;DHT22;23980;51.902;12.832;2022-07-25T14:26:35;40.10;39.80
38167;DHT22;23980;51.902;12.832;2022-07-25T14:31:37;40.00;39.60
38167;DHT22;23980;51.902;12.832;2022-07-25T14:36:38;39.60;38.90
38167;DHT22;23980;51.902;12.832;2022-07-25T14:41:39;39.00;38.60
38167;DHT22;23980;51.902;12.832;2022-07-25T14:46:40;38.50;38.40
38167;DHT22;23980;51.902;12.832;2022-07-25T14:51:43;38.10;38.30
38167;DHT22;23980;51.902;12.832;2022-07-25T14:56:46;37.80;38.10
38167;DHT22;23980;51.902;12.832;2022-07-25T15:01:47;37.50;38.10
38167;DHT22;23980;51.902;12.832;2022-07-25T15:06:48;37.20;38.10
38167;DHT22;23980;51.902;12.832;2022-07-25T15:11:48;36.80;38.00
38167;DHT22;23980;51.902;12.832;2022-07-25T15:16:49;36.50;37.90
38167;DHT22;23980;51.902;12.832;2022-07-25T15:21:50;36.20;38.10
38167;DHT22;23980;51.902;12.832;2022-07-25T15:26:50;36.00;37.90
38167;DHT22;23980;51.902;12.832;2022-07-25T15:31:51;35.80;38.30
38167;DHT22;23980;51.902;12.832;2022-07-25T15:36:53;35.70;38.40
38167;DHT22;23980;51.902;12.832;2022-07-25T15:41:55;35.80;38.80
38167;DHT22;23980;51.902;12.832;2022-07-25T15:46:56;36.10;39.10
38167;DHT22;23980;51.902;12.832;2022-07-25T15:51:56;36.10;38.90
38167;DHT22;23980;51.902;12.832;2022-07-25T15:56:57;36.10;38.50
38167;DHT22;23980;51.902;12.832;2022-07-25T16:01:58;36.00;38.60
38167;DHT22;23980;51.902;12.832;2022-07-25T16:06:59;35.80;38.30
38167;DHT22;23980;51.902;12.832;2022-07-25T16:12:00;35.60;38.30
38167;DHT22;23980;51.902;12.832;2022-07-25T16:17:01;35.30;38.00
38167;DHT22;23980;51.902;12.832;2022-07-25T16:22:02;35.00;37.50
38167;DHT22;23980;51.902;12.832;2022-07-25T16:27:04;34.70;37.70
38167;DHT22;23980;51.902;12.832;2022-07-25T16:32:05;34.50;37.60
38167;DHT22;23980;51.902;12.832;2022-07-25T16:37:05;34.20;37.50
38167;DHT22;23980;51.902;12.832;2022-07-25T16:42:08;34.00;37.40
38167;DHT22;23980;51.902;12.832;2022-07-25T16:47:09;33.80;37.40
38167;DHT22;23980;51.902;12.832;2022-07-25T16:52:10;33.60;37.70
38167;DHT22;23980;51.902;12.832;2022-07-25T16:57:10;32.90;37.50
38167;DHT22;23980;51.902;12.832;2022-07-25T17:02:11;31.90;37.90
38167;DHT22;23980;51.902;12.832;2022-07-25T17:07:11;31.00;38.30
38167;DHT22;23980;51.902;12.832;2022-07-25T17:12:12;30.00;38.10
38167;DHT22;23980;51.902;12.832;2022-07-25T17:17:12;29.10;38.70
38167;DHT22;23980;51.902;12.832;2022-07-25T17:22:13;27.90;39.10
38167;DHT22;23980;51.902;12.832;2022-07-25T17:33:36;26.80;39.70
38167;DHT22;23980;51.902;12.832;2022-07-25T17:38:36;26.50;39.90
38167;DHT22;23980;51.902;12.832;2022-07-25T17:43:38;26.30;40.20
38167;DHT22;23980;51.902;12.832;2022-07-25T17:48:40;26.00;40.40
38167;DHT22;23980;51.902;12.832;2022-07-25T17:53:40;25.90;40.60
38167;DHT22;23980;51.902;12.832;2022-07-25T17:58:41;25.70;40.70
38167;DHT22;23980;51.902;12.832;2022-07-25T18:03:42;25.50;40.70
38167;DHT22;23980;51.902;12.832;2022-07-25T18:08:46;25.40;40.90
38167;DHT22;23980;51.902;12.832;2022-07-25T18:13:47;25.20;40.70
38167;DHT22;23980;51.902;12.832;2022-07-25T18:18:47;25.10;40.80
38167;DHT22;23980;51.902;12.832;2022-07-25T18:23:48;24.90;40.90
38167;DHT22;23980;51.902;12.832;2022-07-25T18:28:49;24.80;41.10
38167;DHT22;23980;51.902;12.832;2022-07-25T18:33:56;24.70;41.20
38167;DHT22;23980;51.902;12.832;2022-07-25T18:38:56;24.60;42.00
38167;DHT22;23980;51.902;12.832;2022-07-25T18:43:58;24.50;41.50
38167;DHT22;23980;51.902;12.832;2022-07-25T18:48:58;24.40;41.60
38167;DHT22;23980;51.902;12.832;2022-07-25T18:54:03;24.30;41.70
38167;DHT22;23980;51.902;12.832;2022-07-25T18:59:14;24.20;41.90
38167;DHT22;23980;51.902;12.832;2022-07-25T19:04:15;24.10;42.40
38167;DHT22;23980;51.902;12.832;2022-07-25T19:09:46;24.00;41.90
38167;DHT22;23980;51.902;12.832;2022-07-25T19:14:54;23.90;42.30
38167;DHT22;23980;51.902;12.832;2022-07-25T19:19:58;23.80;42.70
38167;DHT22;23980;51.902;12.832;2022-07-25T19:24:59;23.70;42.40
38167;DHT22;23980;51.902;12.832;2022-07-25T19:30:19;23.70;42.30
38167;DHT22;23980;51.902;12.832;2022-07-25T19:35:20;23.60;43.10
38167;DHT22;23980;51.902;12.832;2022-07-25T19:40:20;23.50;42.50
38167;DHT22;23980;51.902;12.832;2022-07-25T19:45:21;23.50;42.60
38167;DHT22;23980;51.902;12.832;2022-07-25T19:50:22;23.40;42.60
38167;DHT22;23980;51.902;12.832;2022-07-25T19:55:22;23.40;42.70
38167;DHT22;23980;51.902;12.832;2022-07-25T20:00:23;23.30;42.80
38167;DHT22;23980;51.902;12.832;2022-07-25T20:05:31;23.20;42.90
38167;DHT22;23980;51.902;12.832;2022-07-25T20:10:42;23.20;43.70
38167;DHT22;23980;51.902;12.832;2022-07-25T20:15:43;23.10;43.80
38167;DHT22;23980;51.902;12.832;2022-07-25T20:20:44;23.00;43.20
38167;DHT22;23980;51.902;12.832;2022-07-25T20:25:52;23.00;43.10
38167;DHT22;23980;51.902;12.832;2022-07-25T20:30:53;22.90;43.70
38167;DHT22;23980;51.902;12.832;2022-07-25T20:35:56;22.90;43.40
38167;DHT22;23980;51.902;12.832;2022-07-25T20:40:57;22.80;43.20
38167;DHT22;23980;51.902;12.832;2022-07-25T20:45:58;22.70;43.00
38167;DHT22;23980;51.902;12.832;2022-07-25T20:50:59;22.60;42.90
38167;DHT22;23980;51.902;12.832;2022-07-25T20:56:00;22.50;43.20
38167;DHT22;23980;51.902;12.832;2022-07-25T21:01:01;22.50;43.20
38167;DHT22;23980;51.902;12.832;2022-07-25T21:06:02;22.30;43.20
38167;DHT22;23980;51.902;12.832;2022-07-25T21:11:25;22.20;43.30
38167;DHT22;23980;51.902;12.832;2022-07-25T21:16:25;22.10;43.80
38167;DHT22;23980;51.902;12.832;2022-07-25T21:21:27;22.00;43.40
38167;DHT22;23980;51.902;12.832;2022-07-25T21:26:30;21.80;43.40
38167;DHT22;23980;51.902;12.832;2022-07-25T21:31:31;21.70;43.50
38167;DHT22;23980;51.902;12.832;2022-07-25T21:36:32;21.60;43.30
38167;DHT22;23980;51.902;12.832;2022-07-25T21:41:34;21.50;43.20
38167;DHT22;23980;51.902;12.832;2022-07-25T21:46:34;21.40;43.30
38167;DHT22;23980;51.902;12.832;2022-07-25T21:51:36;21.30;43.20
38167;DHT22;23980;51.902;12.832;2022-07-25T21:56:46;21.20;43.40
38167;DHT22;23980;51.902;12.832;2022-07-25T22:01:46;21.10;43.70
38167;DHT22;23980;51.902;12.832;2022-07-25T22:06:49;21.10;43.30
38167;DHT22;23980;51.902;12.832;2022-07-25T22:11:50;21.00;43.40
38167;DHT22;23980;51.902;12.832;2022-07-25T22:16:53;20.90;43.30
38167;DHT22;23980;51.902;12.832;2022-07-25T22:21:54;20.90;43.40
38167;DHT22;23980;51.902;12.832;2022-07-25T22:26:55;20.90;43.50
38167;DHT22;23980;51.902;12.832;2022-07-25T22:31:55;20.90;43.50
38167;DHT22;23980;51.902;12.832;2022-07-25T22:36:56;20.90;43.50
38167;DHT22;23980;51.902;12.832;2022-07-25T22:41:56;20.90;43.60
38167;DHT22;23980;51.902;12.832;2022-07-25T22:46:59;20.90;43.60
38167;DHT22;23980;51.902;12.832;2022-07-25T22:52:05;20.90;43.80
38167;DHT22;23980;51.902;12.832;2022-07-25T22:57:07;20.80;44.10
38167;DHT22;23980;51.902;12.832;2022-07-25T23:02:07;20.80;43.70
38167;DHT22;23980;51.902;12.832;2022-07-25T23:07:08;20.80;43.80
38167;DHT22;23980;51.902;12.832;2022-07-25T23:12:08;20.80;43.60
38167;DHT22;23980;51.902;12.832;2022-07-25T23:17:09;20.70;43.70
38167;DHT22;23980;51.902;12.832;2022-07-25T23:22:25;20.70;43.70
38167;DHT22;23980;51.902;12.832;2022-07-25T23:27:33;20.70;43.90
38167;DHT22;23980;51.902;12.832;2022-07-25T23:32:34;20.60;44.40
38167;DHT22;23980;51.902;12.832;2022-07-25T23:37:35;20.60;43.80
38167;DHT22;23980;51.902;12.832;2022-07-25T23:42:35;20.50;43.90
38167;DHT22;23980;51.902;12.832;2022-07-25T23:47:36;20.50;43.90
38167;DHT22;23980;51.902;12.832;2022-07-25T23:52:39;20.40;43.90
38167;DHT22;23980;51.902;12.832;2022-07-25T23:57:39;20.40;44.10
